sensor_id;sensor_type;location;lat;lon;timestamp;temperature;humidity
14397;DHT22;50653;47.810;13.022;2024-03-06T00:02:10;8.50;99.90
14397;DHT22;50653;47.810;13.022;2024-03-06T00:04:36;8.60;99.90
14397;DHT22;50653;47.810;13.022;2024-03-06T00:07:02;8.60;99.90
14397;DHT22;50653;47.810;13.022;2024-03-06T00:09:28;8.60;99.90
14397;DHT22;50653;47.810;13.022;2024-03-06T00:11:54;8.60;99.90
14397;DHT22;50653;47.810;13.022;2024-03-06T00:14:21;8.60;99.90
14397;DHT22;50653;47.810;13.022;2024-03-06T00:16:50;8.60;99.90
14397;DHT22;50653;47.810;13.022;2024-03-06T00:19:16;8.40;99.90
14397;DHT22;50653;47.810;13.022;2024-03-06T00:21:42;8.30;99.90
14397;DHT22;50653;47.810;13.022;2024-03-06T00:24:08;8.30;99.90
14397;DHT22;50653;47.810;13.022;2024-03-06T00:26:34;8.40;99.90
14397;DHT22;50653;47.810;13.022;2024-03-06T00:28:59;8.40;99.90
14397;DHT22;50653;47.810;13.022;2024-03-06T00:31:26;8.20;99.90
14397;DHT22;50653;47.810;13.022;2024-03-06T00:33:52;8.20;99.90
14397;DHT22;50653;47.810;13.022;2024-03-06T00:36:17;8.20;99.90
14397;DHT22;50653;47.810;13.022;2024-03-06T00:38:43;8.10;99.90
14397;DHT22;50653;47.810;13.022;2024-03-06T00:41:09;8.10;99.90
14397;DHT22;50653;47.810;13.022;2024-03-06T00:43:34;8.10;99.90
14397;DHT22;50653;47.810;13.022;2024-03-06T00:46:00;8.10;99.90
14397;DHT22;50653;47.810;13.022;2024-03-06T00:48:26;8.20;99.90
14397;DHT22;50653;47.810;13.022;2024-03-06T00:50:51;8.20;99.90
14397;DHT22;50653;47.810;13.022;2024-03-06T00:53:17;8.20;99.90
14397;DHT22;50653;47.810;13.022;2024-03-06T00:55:43;8.20;99.90
14397;DHT22;50653;47.810;13.022;2024-03-06T00:58:09;8.20;99.90
14397;DHT22;50653;47.810;13.022;2024-03-06T01:00:34;8.20;99.90
14397;DHT22;50653;47.810;13.022;2024-03-06T01:03:00;8.20;99.90
14397;DHT22;50653;47.810;13.022;2024-03-06T01:05:26;8.10;99.90
14397;DHT22;50653;47.810;13.022;2024-03-06T01:07:52;8.00;99.90
14397;DHT22;50653;47.810;13.022;2024-03-06T01:10:19;7.80;99.90
14397;DHT22;50653;47.810;13.022;2024-03-06T01:12:45;7.80;99.90
14397;DHT22;50653;47.810;13.022;2024-03-06T01:15:11;7.90;99.90
14397;DHT22;50653;47.810;13.022;2024-03-06T01:17:37;7.90;99.90
14397;DHT22;50653;47.810;13.022;2024-03-06T01:20:03;8.00;99.90
14397;DHT22;50653;47.810;13.022;2024-03-06T01:22:33;8.00;99.90
14397;DHT22;50653;47.810;13.022;2024-03-06T01:24:58;8.00;99.90
14397;DHT22;50653;47.810;13.022;2024-03-06T01:27:25;7.70;99.90
14397;DHT22;50653;47.810;13.022;2024-03-06T01:29:50;7.60;99.90
14397;DHT22;50653;47.810;13.022;2024-03-06T01:32:16;7.20;99.90
14397;DHT22;50653;47.810;13.022;2024-03-06T01:34:42;7.20;99.90
14397;DHT22;50653;47.810;13.022;2024-03-06T01:37:07;7.20;99.90
14397;DHT22;50653;47.810;13.022;2024-03-06T01:39:33;7.30;99.90
14397;DHT22;50653;47.810;13.022;2024-03-06T01:42:01;7.30;99.90
14397;DHT22;50653;47.810;13.022;2024-03-06T01:44:27;7.40;99.90
14397;DHT22;50653;47.810;13.022;2024-03-06T01:46:53;7.40;99.90
14397;DHT22;50653;47.810;13.022;2024-03-06T01:49:21;7.30;99.90
14397;DHT22;50653;47.810;13.022;2024-03-06T01:51:52;7.30;99.90
14397;DHT22;50653;47.810;13.022;2024-03-06T01:54:19;7.40;99.90
14397;DHT22;50653;47.810;13.022;2024-03-06T01:56:46;7.50;99.90
14397;DHT22;50653;47.810;13.022;2024-03-06T01:59:17;7.40;99.90
14397;DHT22;50653;47.810;13.022;2024-03-06T02:01:44;7.50;99.90
14397;DHT22;50653;47.810;13.022;2024-03-06T02:04:12;7.60;99.90
14397;DHT22;50653;47.810;13.022;2024-03-06T02:06:41;7.60;99.90
14397;DHT22;50653;47.810;13.022;2024-03-06T02:09:08;7.70;99.90
14397;DHT22;50653;47.810;13.022;2024-03-06T02:11:36;7.70;99.90
14397;DHT22;50653;47.810;13.022;2024-03-06T02:14:02;7.70;99.90
14397;DHT22;50653;47.810;13.022;2024-03-06T02:16:28;7.70;99.90
14397;DHT22;50653;47.810;13.022;2024-03-06T02:18:55;7.70;99.90
14397;DHT22;50653;47.810;13.022;2024-03-06T02:21:21;7.60;99.90
14397;DHT22;50653;47.810;13.022;2024-03-06T02:23:47;7.60;99.90
14397;DHT22;50653;47.810;13.022;2024-03-06T02:26:14;7.70;99.90
14397;DHT22;50653;47.810;13.022;2024-03-06T02:28:46;7.70;99.90
14397;DHT22;50653;47.810;13.022;2024-03-06T02:31:11;7.60;99.90
14397;DHT22;50653;47.810;13.022;2024-03-06T02:33:37;7.60;99.90
14397;DHT22;50653;47.810;13.022;2024-03-06T02:36:03;7.60;99.90
14397;DHT22;50653;47.810;13.022;2024-03-06T02:38:28;7.60;99.90
14397;DHT22;50653;47.810;13.022;2024-03-06T02:40:54;7.70;99.90
14397;DHT22;50653;47.810;13.022;2024-03-06T02:43:20;7.70;99.90
14397;DHT22;50653;47.810;13.022;2024-03-06T02:45:45;7.70;99.90
14397;DHT22;50653;47.810;13.022;2024-03-06T02:48:11;7.70;99.90
14397;DHT22;50653;47.810;13.022;2024-03-06T02:50:37;7.70;99.90
14397;DHT22;50653;47.810;13.022;2024-03-06T02:53:02;7.70;99.90
14397;DHT22;50653;47.810;13.022;2024-03-06T02:55:28;7.50;99.90
14397;DHT22;50653;47.810;13.022;2024-03-06T02:57:54;7.40;99.90
14397;DHT22;50653;47.810;13.022;2024-03-06T03:00:20;7.40;99.90
14397;DHT22;50653;47.810;13.022;2024-03-06T03:02:45;7.40;99.90
14397;DHT22;50653;47.810;13.022;2024-03-06T03:05:11;7.40;99.90
14397;DHT22;50653;47.810;13.022;2024-03-06T03:07:37;7.50;99.90
14397;DHT22;50653;47.810;13.022;2024-03-06T03:10:03;7.50;99.90
14397;DHT22;50653;47.810;13.022;2024-03-06T03:12:30;7.50;99.90
14397;DHT22;50653;47.810;13.022;2024-03-06T03:14:55;7.60;99.90
14397;DHT22;50653;47.810;13.022;2024-03-06T03:17:21;7.60;99.90
14397;DHT22;50653;47.810;13.022;2024-03-06T03:19:47;7.40;99.90
14397;DHT22;50653;47.810;13.022;2024-03-06T03:22:12;7.40;99.90
14397;DHT22;50653;47.810;13.022;2024-03-06T03:24:41;7.30;99.90
14397;DHT22;50653;47.810;13.022;2024-03-06T03:27:06;7.20;99.90
14397;DHT22;50653;47.810;13.022;2024-03-06T03:29:33;7.30;99.90
14397;DHT22;50653;47.810;13.022;2024-03-06T03:31:59;7.10;99.90
14397;DHT22;50653;47.810;13.022;2024-03-06T03:34:24;7.10;99.90
14397;DHT22;50653;47.810;13.022;2024-03-06T03:36:50;7.20;99.90
14397;DHT22;50653;47.810;13.022;2024-03-06T03:39:16;7.40;99.90
14397;DHT22;50653;47.810;13.022;2024-03-06T03:41:48;7.30;99.90
14397;DHT22;50653;47.810;13.022;2024-03-06T03:44:14;7.40;99.90
14397;DHT22;50653;47.810;13.022;2024-03-06T03:46:40;7.20;99.90
14397;DHT22;50653;47.810;13.022;2024-03-06T03:49:06;7.30;99.90
14397;DHT22;50653;47.810;13.022;2024-03-06T03:51:32;7.30;99.90
14397;DHT22;50653;47.810;13.022;2024-03-06T03:53:58;7.20;99.90
14397;DHT22;50653;47.810;13.022;2024-03-06T03:56:23;7.00;99.90
14397;DHT22;50653;47.810;13.022;2024-03-06T03:58:49;7.10;99.90
14397;DHT22;50653;47.810;13.022;2024-03-06T04:01:15;7.10;99.90
14397;DHT22;50653;47.810;13.022;2024-03-06T04:03:40;7.10;99.90
14397;DHT22;50653;47.810;13.022;2024-03-06T04:06:08;7.20;99.90
14397;DHT22;50653;47.810;13.022;2024-03-06T04:08:34;7.10;99.90
14397;DHT22;50653;47.810;13.022;2024-03-06T04:10:59;7.10;99.90
14397;DHT22;50653;47.810;13.022;2024-03-06T04:13:26;7.10;99.90
14397;DHT22;50653;47.810;13.022;2024-03-06T04:15:51;7.10;99.90
14397;DHT22;50653;47.810;13.022;2024-03-06T04:18:17;7.00;99.90
14397;DHT22;50653;47.810;13.022;2024-03-06T04:20:43;7.00;99.90
14397;DHT22;50653;47.810;13.022;2024-03-06T04:23:09;7.00;99.90
14397;DHT22;50653;47.810;13.022;2024-03-06T04:25:35;7.10;99.90
14397;DHT22;50653;47.810;13.022;2024-03-06T04:28:00;7.20;99.90
14397;DHT22;50653;47.810;13.022;2024-03-06T04:30:27;7.10;99.90
14397;DHT22;50653;47.810;13.022;2024-03-06T04:32:53;6.90;99.90
14397;DHT22;50653;47.810;13.022;2024-03-06T04:35:19;6.80;99.90
14397;DHT22;50653;47.810;13.022;2024-03-06T04:37:45;6.80;99.90
14397;DHT22;50653;47.810;13.022;2024-03-06T04:40:10;6.60;99.90
14397;DHT22;50653;47.810;13.022;2024-03-06T04:42:36;6.60;99.90
14397;DHT22;50653;47.810;13.022;2024-03-06T04:45:03;6.70;99.90
14397;DHT22;50653;47.810;13.022;2024-03-06T04:47:29;6.60;99.90
14397;DHT22;50653;47.810;13.022;2024-03-06T04:49:55;6.50;99.90
14397;DHT22;50653;47.810;13.022;2024-03-06T04:52:20;6.40;99.90
14397;DHT22;50653;47.810;13.022;2024-03-06T04:54:46;6.50;99.90
14397;DHT22;50653;47.810;13.022;2024-03-06T04:57:12;6.50;99.90
14397;DHT22;50653;47.810;13.022;2024-03-06T04:59:37;6.40;99.90
14397;DHT22;50653;47.810;13.022;2024-03-06T05:02:03;6.40;99.90
14397;DHT22;50653;47.810;13.022;2024-03-06T05:04:29;6.50;99.90
14397;DHT22;50653;47.810;13.022;2024-03-06T05:06:55;6.70;99.90
14397;DHT22;50653;47.810;13.022;2024-03-06T05:09:21;6.60;99.90
14397;DHT22;50653;47.810;13.022;2024-03-06T05:11:47;6.40;99.90
14397;DHT22;50653;47.810;13.022;2024-03-06T05:14:16;6.50;99.90
14397;DHT22;50653;47.810;13.022;2024-03-06T05:16:42;6.50;99.90
14397;DHT22;50653;47.810;13.022;2024-03-06T05:19:07;6.50;99.90
14397;DHT22;50653;47.810;13.022;2024-03-06T05:21:33;6.50;99.90
14397;DHT22;50653;47.810;13.022;2024-03-06T05:24:00;6.50;99.90
14397;DHT22;50653;47.810;13.022;2024-03-06T05:26:26;6.60;99.90
14397;DHT22;50653;47.810;13.022;2024-03-06T05:28:52;6.70;99.90
14397;DHT22;50653;47.810;13.022;2024-03-06T05:31:19;6.80;99.90
14397;DHT22;50653;47.810;13.022;2024-03-06T05:33:48;7.00;99.90
14397;DHT22;50653;47.810;13.022;2024-03-06T05:36:17;6.90;99.90
14397;DHT22;50653;47.810;13.022;2024-03-06T05:38:44;6.90;99.90
14397;DHT22;50653;47.810;13.022;2024-03-06T05:41:10;6.80;99.90
14397;DHT22;50653;47.810;13.022;2024-03-06T05:43:35;6.90;99.90
14397;DHT22;50653;47.810;13.022;2024-03-06T05:46:01;6.90;99.90
14397;DHT22;50653;47.810;13.022;2024-03-06T05:48:27;6.90;99.90
14397;DHT22;50653;47.810;13.022;2024-03-06T05:50:53;6.80;99.90
14397;DHT22;50653;47.810;13.022;2024-03-06T05:53:19;6.80;99.90
14397;DHT22;50653;47.810;13.022;2024-03-06T05:55:45;6.60;99.90
14397;DHT22;50653;47.810;13.022;2024-03-06T05:58:11;6.40;99.90
14397;DHT22;50653;47.810;13.022;2024-03-06T06:00:36;6.50;99.90
14397;DHT22;50653;47.810;13.022;2024-03-06T06:03:03;6.30;99.90
14397;DHT22;50653;47.810;13.022;2024-03-06T06:05:29;6.30;99.90
14397;DHT22;50653;47.810;13.022;2024-03-06T06:07:55;6.50;99.90
14397;DHT22;50653;47.810;13.022;2024-03-06T06:10:20;6.20;99.90
14397;DHT22;50653;47.810;13.022;2024-03-06T06:12:46;6.10;99.90
14397;DHT22;50653;47.810;13.022;2024-03-06T06:15:12;6.00;99.90
14397;DHT22;50653;47.810;13.022;2024-03-06T06:17:37;6.00;99.90
14397;DHT22;50653;47.810;13.022;2024-03-06T06:20:07;6.10;99.90
14397;DHT22;50653;47.810;13.022;2024-03-06T06:22:36;5.80;99.90
14397;DHT22;50653;47.810;13.022;2024-03-06T06:25:03;5.80;99.90
14397;DHT22;50653;47.810;13.022;2024-03-06T06:27:29;5.90;99.90
14397;DHT22;50653;47.810;13.022;2024-03-06T06:29:55;5.90;99.90
14397;DHT22;50653;47.810;13.022;2024-03-06T06:32:21;5.90;99.90
14397;DHT22;50653;47.810;13.022;2024-03-06T06:34:46;5.90;99.90
14397;DHT22;50653;47.810;13.022;2024-03-06T06:37:12;6.10;99.90
14397;DHT22;50653;47.810;13.022;2024-03-06T06:39:38;6.20;99.90
14397;DHT22;50653;47.810;13.022;2024-03-06T06:42:04;6.20;99.90
14397;DHT22;50653;47.810;13.022;2024-03-06T06:44:29;6.30;99.90
14397;DHT22;50653;47.810;13.022;2024-03-06T06:46:55;6.20;99.90
14397;DHT22;50653;47.810;13.022;2024-03-06T06:49:21;6.40;99.90
14397;DHT22;50653;47.810;13.022;2024-03-06T06:51:47;6.40;99.90
14397;DHT22;50653;47.810;13.022;2024-03-06T06:54:15;6.10;99.90
14397;DHT22;50653;47.810;13.022;2024-03-06T06:56:40;6.00;99.90
14397;DHT22;50653;47.810;13.022;2024-03-06T06:59:06;6.10;99.90
14397;DHT22;50653;47.810;13.022;2024-03-06T07:01:32;6.20;99.90
14397;DHT22;50653;47.810;13.022;2024-03-06T07:03:58;6.00;99.90
14397;DHT22;50653;47.810;13.022;2024-03-06T07:06:24;6.20;99.90
14397;DHT22;50653;47.810;13.022;2024-03-06T07:08:50;6.40;99.90
14397;DHT22;50653;47.810;13.022;2024-03-06T07:11:19;6.50;99.90
14397;DHT22;50653;47.810;13.022;2024-03-06T07:13:46;6.20;99.90
14397;DHT22;50653;47.810;13.022;2024-03-06T07:16:11;6.00;99.90
14397;DHT22;50653;47.810;13.022;2024-03-06T07:18:37;5.80;99.90
14397;DHT22;50653;47.810;13.022;2024-03-06T07:21:03;6.00;99.90
14397;DHT22;50653;47.810;13.022;2024-03-06T07:23:28;6.00;99.90
14397;DHT22;50653;47.810;13.022;2024-03-06T07:25:54;5.90;99.90
14397;DHT22;50653;47.810;13.022;2024-03-06T07:28:20;5.80;99.90
14397;DHT22;50653;47.810;13.022;2024-03-06T07:30:47;5.90;99.90
14397;DHT22;50653;47.810;13.022;2024-03-06T07:33:12;5.90;99.90
14397;DHT22;50653;47.810;13.022;2024-03-06T07:35:39;6.00;99.90
14397;DHT22;50653;47.810;13.022;2024-03-06T07:38:05;6.10;99.90
14397;DHT22;50653;47.810;13.022;2024-03-06T07:40:31;6.00;99.90
14397;DHT22;50653;47.810;13.022;2024-03-06T07:42:57;5.80;99.90
14397;DHT22;50653;47.810;13.022;2024-03-06T07:45:25;5.90;99.90
14397;DHT22;50653;47.810;13.022;2024-03-06T07:47:51;5.90;99.90
14397;DHT22;50653;47.810;13.022;2024-03-06T07:50:17;5.90;99.90
14397;DHT22;50653;47.810;13.022;2024-03-06T07:52:46;5.80;99.90
14397;DHT22;50653;47.810;13.022;2024-03-06T07:55:12;5.50;99.90
14397;DHT22;50653;47.810;13.022;2024-03-06T07:57:37;5.70;99.90
14397;DHT22;50653;47.810;13.022;2024-03-06T08:00:05;5.90;99.90
14397;DHT22;50653;47.810;13.022;2024-03-06T08:02:40;6.00;99.90
14397;DHT22;50653;47.810;13.022;2024-03-06T08:05:10;5.90;99.90
14397;DHT22;50653;47.810;13.022;2024-03-06T08:07:39;6.10;99.90
14397;DHT22;50653;47.810;13.022;2024-03-06T08:10:08;6.20;99.90
14397;DHT22;50653;47.810;13.022;2024-03-06T08:12:35;6.20;99.90
14397;DHT22;50653;47.810;13.022;2024-03-06T08:15:00;6.30;99.90
14397;DHT22;50653;47.810;13.022;2024-03-06T08:17:28;6.40;99.90
14397;DHT22;50653;47.810;13.022;2024-03-06T08:19:54;6.30;99.90
14397;DHT22;50653;47.810;13.022;2024-03-06T08:22:20;6.30;99.90
14397;DHT22;50653;47.810;13.022;2024-03-06T08:24:46;6.20;99.90
14397;DHT22;50653;47.810;13.022;2024-03-06T08:27:12;6.40;99.90
14397;DHT22;50653;47.810;13.022;2024-03-06T08:29:37;6.10;99.90
14397;DHT22;50653;47.810;13.022;2024-03-06T08:32:03;6.10;99.90
14397;DHT22;50653;47.810;13.022;2024-03-06T08:34:29;6.00;99.90
14397;DHT22;50653;47.810;13.022;2024-03-06T08:36:55;6.20;99.90
14397;DHT22;50653;47.810;13.022;2024-03-06T08:39:21;6.00;99.90
14397;DHT22;50653;47.810;13.022;2024-03-06T08:41:47;6.10;99.90
14397;DHT22;50653;47.810;13.022;2024-03-06T08:44:13;6.00;99.90
14397;DHT22;50653;47.810;13.022;2024-03-06T08:46:39;6.10;99.90
14397;DHT22;50653;47.810;13.022;2024-03-06T08:49:05;6.20;99.90
14397;DHT22;50653;47.810;13.022;2024-03-06T08:51:31;6.20;99.90
14397;DHT22;50653;47.810;13.022;2024-03-06T08:53:56;6.00;99.90
14397;DHT22;50653;47.810;13.022;2024-03-06T08:56:23;6.00;99.90
14397;DHT22;50653;47.810;13.022;2024-03-06T08:58:48;6.00;99.90
14397;DHT22;50653;47.810;13.022;2024-03-06T09:01:14;5.80;99.90
14397;DHT22;50653;47.810;13.022;2024-03-06T09:03:40;5.80;99.90
14397;DHT22;50653;47.810;13.022;2024-03-06T09:06:05;5.90;99.90
14397;DHT22;50653;47.810;13.022;2024-03-06T09:08:31;6.10;99.90
14397;DHT22;50653;47.810;13.022;2024-03-06T09:10:57;5.80;99.90
14397;DHT22;50653;47.810;13.022;2024-03-06T09:13:25;5.70;99.90
14397;DHT22;50653;47.810;13.022;2024-03-06T09:15:51;6.00;99.90
14397;DHT22;50653;47.810;13.022;2024-03-06T09:18:17;6.10;99.90
14397;DHT22;50653;47.810;13.022;2024-03-06T09:20:43;6.20;99.90
14397;DHT22;50653;47.810;13.022;2024-03-06T09:23:08;6.00;99.90
14397;DHT22;50653;47.810;13.022;2024-03-06T09:25:34;6.10;99.90
14397;DHT22;50653;47.810;13.022;2024-03-06T09:28:00;5.90;99.90
14397;DHT22;50653;47.810;13.022;2024-03-06T09:30:30;5.80;99.90
14397;DHT22;50653;47.810;13.022;2024-03-06T09:32:55;5.70;99.90
14397;DHT22;50653;47.810;13.022;2024-03-06T09:35:21;5.80;99.90
14397;DHT22;50653;47.810;13.022;2024-03-06T09:37:47;5.90;99.90
14397;DHT22;50653;47.810;13.022;2024-03-06T09:40:20;5.80;99.90
14397;DHT22;50653;47.810;13.022;2024-03-06T09:42:47;5.70;99.90
14397;DHT22;50653;47.810;13.022;2024-03-06T09:45:13;5.80;99.90
14397;DHT22;50653;47.810;13.022;2024-03-06T09:47:39;5.80;99.90
14397;DHT22;50653;47.810;13.022;2024-03-06T09:50:09;6.00;99.90
14397;DHT22;50653;47.810;13.022;2024-03-06T09:52:36;6.10;99.90
14397;DHT22;50653;47.810;13.022;2024-03-06T09:55:02;6.20;99.90
14397;DHT22;50653;47.810;13.022;2024-03-06T09:57:30;5.70;99.90
14397;DHT22;50653;47.810;13.022;2024-03-06T09:59:56;5.50;99.90
14397;DHT22;50653;47.810;13.022;2024-03-06T10:02:31;5.60;99.90
14397;DHT22;50653;47.810;13.022;2024-03-06T10:05:00;5.40;99.90
14397;DHT22;50653;47.810;13.022;2024-03-06T10:07:28;5.50;99.90
14397;DHT22;50653;47.810;13.022;2024-03-06T10:09:53;5.50;99.90
14397;DHT22;50653;47.810;13.022;2024-03-06T10:12:19;5.60;99.90
14397;DHT22;50653;47.810;13.022;2024-03-06T10:14:52;5.70;99.90
14397;DHT22;50653;47.810;13.022;2024-03-06T10:17:22;5.80;99.90
14397;DHT22;50653;47.810;13.022;2024-03-06T10:19:48;5.60;99.90
14397;DHT22;50653;47.810;13.022;2024-03-06T10:22:20;5.40;99.90
14397;DHT22;50653;47.810;13.022;2024-03-06T10:24:46;5.50;99.90
14397;DHT22;50653;47.810;13.022;2024-03-06T10:27:16;5.50;99.90
14397;DHT22;50653;47.810;13.022;2024-03-06T10:29:44;5.60;99.90
14397;DHT22;50653;47.810;13.022;2024-03-06T10:32:10;5.80;99.90
14397;DHT22;50653;47.810;13.022;2024-03-06T10:34:45;5.70;99.90
14397;DHT22;50653;47.810;13.022;2024-03-06T10:37:11;5.80;99.90
14397;DHT22;50653;47.810;13.022;2024-03-06T10:39:42;6.00;99.90
14397;DHT22;50653;47.810;13.022;2024-03-06T10:42:13;6.00;99.90
14397;DHT22;50653;47.810;13.022;2024-03-06T10:44:43;6.10;99.90
14397;DHT22;50653;47.810;13.022;2024-03-06T10:47:15;6.00;99.90
14397;DHT22;50653;47.810;13.022;2024-03-06T10:49:40;5.90;99.90
14397;DHT22;50653;47.810;13.022;2024-03-06T10:52:09;5.70;99.90
14397;DHT22;50653;47.810;13.022;2024-03-06T10:54:35;5.60;99.90
14397;DHT22;50653;47.810;13.022;2024-03-06T10:57:04;5.60;99.90
14397;DHT22;50653;47.810;13.022;2024-03-06T10:59:30;5.70;99.90
14397;DHT22;50653;47.810;13.022;2024-03-06T11:02:00;5.50;99.90
14397;DHT22;50653;47.810;13.022;2024-03-06T11:04:29;5.50;99.90
14397;DHT22;50653;47.810;13.022;2024-03-06T11:06:56;5.30;99.90
14397;DHT22;50653;47.810;13.022;2024-03-06T11:09:23;5.40;99.90
14397;DHT22;50653;47.810;13.022;2024-03-06T11:11:50;5.40;99.90
14397;DHT22;50653;47.810;13.022;2024-03-06T11:14:22;5.40;99.90
14397;DHT22;50653;47.810;13.022;2024-03-06T11:17:06;5.30;99.90
14397;DHT22;50653;47.810;13.022;2024-03-06T11:28:20;5.60;99.90
14397;DHT22;50653;47.810;13.022;2024-03-06T11:30:56;5.60;99.90
14397;DHT22;50653;47.810;13.022;2024-03-06T11:33:39;5.60;99.90
14397;DHT22;50653;47.810;13.022;2024-03-06T11:36:20;5.60;99.90
14397;DHT22;50653;47.810;13.022;2024-03-06T11:39:07;5.60;99.90
14397;DHT22;50653;47.810;13.022;2024-03-06T11:41:49;5.30;99.90
14397;DHT22;50653;47.810;13.022;2024-03-06T11:44:16;5.50;99.90
14397;DHT22;50653;47.810;13.022;2024-03-06T11:46:47;5.30;99.90
14397;DHT22;50653;47.810;13.022;2024-03-06T11:49:20;5.30;99.90
14397;DHT22;50653;47.810;13.022;2024-03-06T11:51:47;5.40;99.90
14397;DHT22;50653;47.810;13.022;2024-03-06T11:54:14;5.60;99.90
14397;DHT22;50653;47.810;13.022;2024-03-06T11:56:44;5.70;99.90
14397;DHT22;50653;47.810;13.022;2024-03-06T11:59:12;5.60;99.90
14397;DHT22;50653;47.810;13.022;2024-03-06T12:01:38;5.70;99.90
14397;DHT22;50653;47.810;13.022;2024-03-06T12:04:04;5.80;99.90
14397;DHT22;50653;47.810;13.022;2024-03-06T12:06:32;5.90;99.90
14397;DHT22;50653;47.810;13.022;2024-03-06T12:08:58;5.90;99.90
14397;DHT22;50653;47.810;13.022;2024-03-06T12:11:24;6.00;99.90
14397;DHT22;50653;47.810;13.022;2024-03-06T12:13:54;6.10;99.90
14397;DHT22;50653;47.810;13.022;2024-03-06T12:16:21;5.80;99.90
14397;DHT22;50653;47.810;13.022;2024-03-06T12:18:52;5.80;99.90
14397;DHT22;50653;47.810;13.022;2024-03-06T12:21:19;5.70;99.90
14397;DHT22;50653;47.810;13.022;2024-03-06T12:23:44;5.60;99.90
14397;DHT22;50653;47.810;13.022;2024-03-06T12:26:10;5.50;99.90
14397;DHT22;50653;47.810;13.022;2024-03-06T12:28:37;5.60;99.90
14397;DHT22;50653;47.810;13.022;2024-03-06T12:31:06;5.50;99.90
14397;DHT22;50653;47.810;13.022;2024-03-06T12:33:33;5.50;99.90
14397;DHT22;50653;47.810;13.022;2024-03-06T12:36:05;5.60;99.90
14397;DHT22;50653;47.810;13.022;2024-03-06T12:38:32;5.80;99.90
14397;DHT22;50653;47.810;13.022;2024-03-06T12:40:59;5.80;99.90
14397;DHT22;50653;47.810;13.022;2024-03-06T12:43:26;5.80;99.90
14397;DHT22;50653;47.810;13.022;2024-03-06T12:45:52;5.90;99.90
14397;DHT22;50653;47.810;13.022;2024-03-06T12:48:22;6.00;99.90
14397;DHT22;50653;47.810;13.022;2024-03-06T12:50:48;6.00;99.90
14397;DHT22;50653;47.810;13.022;2024-03-06T12:53:21;6.10;99.90
14397;DHT22;50653;47.810;13.022;2024-03-06T12:55:47;5.90;99.90
14397;DHT22;50653;47.810;13.022;2024-03-06T12:58:13;5.90;99.90
14397;DHT22;50653;47.810;13.022;2024-03-06T13:00:40;5.70;99.90
14397;DHT22;50653;47.810;13.022;2024-03-06T13:03:06;5.60;99.90
14397;DHT22;50653;47.810;13.022;2024-03-06T13:05:32;5.50;99.90
14397;DHT22;50653;47.810;13.022;2024-03-06T13:07:58;5.60;99.90
14397;DHT22;50653;47.810;13.022;2024-03-06T13:10:25;5.80;99.90
14397;DHT22;50653;47.810;13.022;2024-03-06T13:12:51;5.80;99.90
14397;DHT22;50653;47.810;13.022;2024-03-06T13:15:17;5.80;99.90
14397;DHT22;50653;47.810;13.022;2024-03-06T13:17:42;5.80;99.90
14397;DHT22;50653;47.810;13.022;2024-03-06T13:20:08;6.00;99.90
14397;DHT22;50653;47.810;13.022;2024-03-06T13:22:35;6.10;99.90
14397;DHT22;50653;47.810;13.022;2024-03-06T13:25:01;6.10;99.90
14397;DHT22;50653;47.810;13.022;2024-03-06T13:27:26;6.10;99.90
14397;DHT22;50653;47.810;13.022;2024-03-06T13:29:53;5.90;99.90
14397;DHT22;50653;47.810;13.022;2024-03-06T13:32:18;5.90;99.90
14397;DHT22;50653;47.810;13.022;2024-03-06T13:34:44;6.00;99.90
14397;DHT22;50653;47.810;13.022;2024-03-06T13:37:10;6.10;99.90
14397;DHT22;50653;47.810;13.022;2024-03-06T13:39:36;6.20;99.90
14397;DHT22;50653;47.810;13.022;2024-03-06T13:42:02;6.40;99.90
14397;DHT22;50653;47.810;13.022;2024-03-06T13:44:28;6.40;99.90
14397;DHT22;50653;47.810;13.022;2024-03-06T13:46:53;6.50;99.90
14397;DHT22;50653;47.810;13.022;2024-03-06T13:52:01;6.60;99.90
14397;DHT22;50653;47.810;13.022;2024-03-06T13:54:26;6.70;99.90
14397;DHT22;50653;47.810;13.022;2024-03-06T13:56:52;6.70;99.90
14397;DHT22;50653;47.810;13.022;2024-03-06T13:59:21;6.70;99.90
14397;DHT22;50653;47.810;13.022;2024-03-06T14:01:47;6.40;99.90
14397;DHT22;50653;47.810;13.022;2024-03-06T14:04:14;6.20;99.90
14397;DHT22;50653;47.810;13.022;2024-03-06T14:06:40;6.10;99.90
14397;DHT22;50653;47.810;13.022;2024-03-06T14:09:05;6.20;99.90
14397;DHT22;50653;47.810;13.022;2024-03-06T14:11:33;6.40;99.90
14397;DHT22;50653;47.810;13.022;2024-03-06T14:14:01;6.50;99.90
14397;DHT22;50653;47.810;13.022;2024-03-06T14:16:26;6.50;99.90
14397;DHT22;50653;47.810;13.022;2024-03-06T14:18:53;6.40;99.90
14397;DHT22;50653;47.810;13.022;2024-03-06T14:21:20;6.40;99.90
14397;DHT22;50653;47.810;13.022;2024-03-06T14:23:46;6.50;99.90
14397;DHT22;50653;47.810;13.022;2024-03-06T14:26:11;6.50;99.90
14397;DHT22;50653;47.810;13.022;2024-03-06T14:28:37;6.40;99.90
14397;DHT22;50653;47.810;13.022;2024-03-06T14:31:05;6.30;99.90
14397;DHT22;50653;47.810;13.022;2024-03-06T14:33:30;6.30;99.90
14397;DHT22;50653;47.810;13.022;2024-03-06T14:35:56;6.10;99.90
14397;DHT22;50653;47.810;13.022;2024-03-06T14:38:22;6.10;99.90
14397;DHT22;50653;47.810;13.022;2024-03-06T14:40:48;6.20;99.90
14397;DHT22;50653;47.810;13.022;2024-03-06T14:43:13;6.20;99.90
14397;DHT22;50653;47.810;13.022;2024-03-06T14:45:39;6.20;99.90
14397;DHT22;50653;47.810;13.022;2024-03-06T14:48:08;6.40;99.90
14397;DHT22;50653;47.810;13.022;2024-03-06T14:50:34;6.40;99.90
14397;DHT22;50653;47.810;13.022;2024-03-06T14:53:00;6.50;99.90
14397;DHT22;50653;47.810;13.022;2024-03-06T14:55:26;6.30;99.90
14397;DHT22;50653;47.810;13.022;2024-03-06T14:57:51;6.30;99.90
14397;DHT22;50653;47.810;13.022;2024-03-06T15:00:17;6.40;99.90
14397;DHT22;50653;47.810;13.022;2024-03-06T15:02:46;6.50;99.90
14397;DHT22;50653;47.810;13.022;2024-03-06T15:05:12;6.60;99.90
14397;DHT22;50653;47.810;13.022;2024-03-06T15:07:38;6.70;99.90
14397;DHT22;50653;47.810;13.022;2024-03-06T15:10:08;6.70;99.90
14397;DHT22;50653;47.810;13.022;2024-03-06T15:12:34;6.80;99.90
14397;DHT22;50653;47.810;13.022;2024-03-06T15:15:03;6.80;99.90
14397;DHT22;50653;47.810;13.022;2024-03-06T15:17:32;6.60;99.90
14397;DHT22;50653;47.810;13.022;2024-03-06T15:19:58;6.60;99.90
14397;DHT22;50653;47.810;13.022;2024-03-06T15:22:25;6.70;99.90
14397;DHT22;50653;47.810;13.022;2024-03-06T15:24:51;6.70;99.90
14397;DHT22;50653;47.810;13.022;2024-03-06T15:27:17;6.70;99.90
14397;DHT22;50653;47.810;13.022;2024-03-06T15:29:43;6.80;99.90
14397;DHT22;50653;47.810;13.022;2024-03-06T15:32:11;6.80;99.90
14397;DHT22;50653;47.810;13.022;2024-03-06T15:34:37;6.90;99.90
14397;DHT22;50653;47.810;13.022;2024-03-06T15:37:02;6.90;99.90
14397;DHT22;50653;47.810;13.022;2024-03-06T15:39:28;7.00;99.90